Time;durP1;ratioP1;P1;durP2;ratioP2;P2;SDS_P1;SDS_P2;PMS_P1;PMS_P2;Temp;Humidity;BMP_temperature;BMP_pressure;BME280_temperature;BME280_humidity;BME280_pressure;Samples;Min_cycle;Max_cycle;Signal;HPM_P1;HPM_P2
2023/04/09 00:01:06;;;;;;;1999.90;999.90;;;28.30;70.50;;;;;;5030095;28;20037;-70
2023/04/09 00:03:35;;;;;;;1999.90;999.90;;;28.30;72.00;;;;;;5036445;28;20033;-71
2023/04/09 00:06:03;;;;;;;1999.90;999.90;;;28.50;70.50;;;;;;5029423;28;20628;-69
2023/04/09 00:08:31;;;;;;;1999.90;999.90;;;28.50;70.50;;;;;;5033434;28;20552;-69
2023/04/09 00:10:59;;;;;;;1999.90;999.90;;;28.40;70.50;;;;;;5035302;28;20068;-69
2023/04/09 00:13:27;;;;;;;1999.90;999.90;;;28.70;69.10;;;;;;5036773;28;20052;-69
2023/04/09 00:15:54;;;;;;;1999.90;999.90;;;28.80;69.40;;;;;;5039217;28;20502;-70
2023/04/09 00:18:21;;;;;;;1999.90;999.90;;;28.50;68.50;;;;;;5037722;28;20025;-69
2023/04/09 00:20:49;;;;;;;1999.90;999.90;;;28.40;70.00;;;;;;5037659;28;20090;-70
2023/04/09 00:23:16;;;;;;;1999.90;999.90;;;28.60;70.60;;;;;;5025940;28;20140;-73
2023/04/09 00:25:43;;;;;;;1999.90;999.90;;;28.50;70.20;;;;;;5040216;28;20079;-70
2023/04/09 00:28:11;;;;;;;1999.90;999.90;;;28.60;68.80;;;;;;5034605;28;20029;-70
2023/04/09 00:30:38;;;;;;;1999.90;999.90;;;28.70;69.70;;;;;;5034463;28;20100;-70
2023/04/09 00:33:05;;;;;;;1999.90;999.90;;;28.90;68.80;;;;;;5033338;28;20052;-70
2023/04/09 00:35:32;;;;;;;1999.90;999.90;;;28.90;69.80;;;;;;5033379;28;20064;-70
2023/04/09 00:38:00;;;;;;;1999.90;999.90;;;29.20;70.80;;;;;;5034653;28;20025;-70
2023/04/09 00:40:27;;;;;;;1999.90;999.90;;;29.50;69.00;;;;;;5046022;28;20052;-71
2023/04/09 00:42:55;;;;;;;1999.90;999.90;;;29.50;68.40;;;;;;5037283;28;20033;-71
2023/04/09 00:45:23;;;;;;;1999.90;999.90;;;29.50;69.10;;;;;;5031648;28;20038;-70
2023/04/09 00:47:51;;;;;;;1999.90;999.90;;;29.50;68.90;;;;;;5037132;28;20049;-71
2023/04/09 00:50:18;;;;;;;1999.90;999.90;;;29.60;67.50;;;;;;5039273;28;20541;-70
2023/04/09 00:52:46;;;;;;;1999.90;999.90;;;29.50;67.10;;;;;;5043654;28;20506;-70
2023/04/09 00:55:14;;;;;;;1999.90;999.90;;;29.50;67.70;;;;;;5040967;28;20033;-69
2023/04/09 00:57:41;;;;;;;1999.90;999.90;;;29.50;68.00;;;;;;5035612;28;20041;-71
2023/04/09 01:00:12;;;;;;;1999.90;999.90;;;29.40;67.70;;;;;;5042586;28;20065;-71
2023/04/09 01:02:40;;;;;;;1999.90;999.90;;;29.30;68.40;;;;;;5039775;28;20080;-68
2023/04/09 01:05:08;;;;;;;1999.90;999.90;;;29.40;68.10;;;;;;5037420;28;20488;-71
2023/04/09 01:07:47;;;;;;;1999.90;999.90;;;29.30;66.90;;;;;;5032871;28;20029;-71
2023/04/09 01:10:26;;;;;;;1999.90;999.90;;;29.50;67.90;;;;;;5027869;28;20041;-71
2023/04/09 01:13:20;;;;;;;1999.90;999.90;;;29.50;68.20;;;;;;5036107;28;20948;-71
2023/04/09 01:15:56;;;;;;;1999.90;999.90;;;29.40;66.90;;;;;;5038702;28;20099;-71
2023/04/09 01:18:23;;;;;;;1999.90;999.90;;;29.50;68.00;;;;;;5038656;28;20383;-72
2023/04/09 01:21:11;;;;;;;1999.90;999.90;;;29.60;68.90;;;;;;5042082;28;20036;-71
2023/04/09 01:23:47;;;;;;;1999.90;999.90;;;29.60;68.00;;;;;;5035571;28;20037;-70
2023/04/09 01:26:21;;;;;;;1999.90;999.90;;;29.70;68.30;;;;;;5038604;28;20029;-72
2023/04/09 01:28:56;;;;;;;1999.90;999.90;;;29.80;67.30;;;;;;5039071;28;20052;-72
2023/04/09 01:31:37;;;;;;;1999.90;999.90;;;29.80;68.10;;;;;;5035164;28;20089;-71
2023/04/09 01:34:06;;;;;;;1999.90;999.90;;;29.90;67.30;;;;;;5038788;28;20594;-71
2023/04/09 01:36:35;;;;;;;1999.90;999.90;;;30.00;68.20;;;;;;5021903;28;20029;-70
2023/04/09 01:39:03;;;;;;;1999.90;999.90;;;30.10;66.80;;;;;;5036832;28;20613;-70
2023/04/09 01:41:33;;;;;;;1999.90;999.90;;;30.00;67.30;;;;;;5035644;28;20057;-70
2023/04/09 01:44:02;;;;;;;1999.90;999.90;;;29.70;65.00;;;;;;5038386;28;20146;-71
2023/04/09 01:46:32;;;;;;;1999.90;999.90;;;29.30;65.60;;;;;;5035094;28;20041;-70
2023/04/09 01:49:01;;;;;;;1999.90;999.90;;;28.90;65.20;;;;;;5036545;28;20513;-70
2023/04/09 01:51:30;;;;;;;1999.90;999.90;;;28.90;67.20;;;;;;5037944;28;20029;-70
2023/04/09 01:53:58;;;;;;;1999.90;999.90;;;28.90;66.20;;;;;;5036131;28;20040;-70
2023/04/09 01:56:26;;;;;;;1999.90;999.90;;;28.80;65.40;;;;;;5030805;28;20499;-70
2023/04/09 01:58:53;;;;;;;1999.90;999.90;;;28.90;66.50;;;;;;5034913;28;20040;-71
2023/04/09 02:01:31;;;;;;;1999.90;999.90;;;28.00;66.20;;;;;;5031787;28;20393;-71
2023/04/09 02:04:02;;;;;;;1999.90;999.90;;;27.60;67.90;;;;;;5025140;28;20061;-70
2023/04/09 02:06:42;;;;;;;1999.90;999.90;;;27.80;67.40;;;;;;5031810;28;20041;-71
2023/04/09 02:09:11;;;;;;;1999.90;999.90;;;28.00;69.20;;;;;;5028685;28;20111;-70
2023/04/09 02:11:41;;;;;;;1999.90;999.90;;;28.20;68.30;;;;;;5028129;28;20033;-71
2023/04/09 02:14:10;;;;;;;1999.90;999.90;;;28.60;68.30;;;;;;5029521;28;20139;-71
2023/04/09 02:16:39;;;;;;;1999.90;999.90;;;28.60;67.80;;;;;;5027482;28;20029;-71
2023/04/09 02:19:06;;;;;;;1999.90;999.90;;;28.70;68.30;;;;;;5030131;28;20464;-70
2023/04/09 02:21:34;;;;;;;1999.90;999.90;;;28.80;67.60;;;;;;5030744;28;20041;-70
2023/04/09 02:24:01;;;;;;;1999.90;999.90;;;28.90;67.50;;;;;;5029962;28;20404;-69
2023/04/09 02:26:28;;;;;;;1999.90;999.90;;;28.80;65.70;;;;;;5036318;28;20037;-68
2023/04/09 02:28:55;;;;;;;1999.90;999.90;;;28.90;67.50;;;;;;5036610;28;20028;-67
2023/04/09 02:31:23;;;;;;;1999.90;999.90;;;28.50;65.20;;;;;;5037976;28;20120;-67
2023/04/09 02:33:52;;;;;;;1999.90;999.90;;;27.70;66.70;;;;;;5033928;28;20059;-70
2023/04/09 02:36:20;;;;;;;1999.90;999.90;;;27.80;69.60;;;;;;5034760;28;20029;-71
2023/04/09 02:38:47;;;;;;;1999.90;999.90;;;28.20;68.60;;;;;;5037661;28;20025;-72
2023/04/09 02:41:15;;;;;;;1999.90;999.90;;;28.20;67.00;;;;;;5031119;28;20536;-71
2023/04/09 02:43:42;;;;;;;1999.90;999.90;;;28.40;68.50;;;;;;5038098;28;20040;-71
2023/04/09 02:46:09;;;;;;;1999.90;999.90;;;28.60;68.10;;;;;;5033571;28;20084;-71
2023/04/09 02:48:37;;;;;;;1999.90;999.90;;;28.70;68.00;;;;;;5036923;28;20099;-72
2023/04/09 02:51:07;;;;;;;1999.90;999.90;;;28.20;67.70;;;;;;5035881;28;20105;-70
2023/04/09 02:53:36;;;;;;;1999.90;999.90;;;28.10;67.70;;;;;;5040816;28;20061;-72
2023/04/09 02:56:04;;;;;;;1999.90;999.90;;;28.20;68.80;;;;;;5034572;28;20586;-71
2023/04/09 02:58:31;;;;;;;1999.90;999.90;;;28.50;67.30;;;;;;5033515;28;20469;-72
2023/04/09 03:00:58;;;;;;;1999.90;999.90;;;27.80;65.00;;;;;;5036078;28;20784;-70
2023/04/09 03:03:26;;;;;;;1999.90;999.90;;;26.70;67.30;;;;;;5037108;28;20140;-71
2023/04/09 03:05:53;;;;;;;1999.90;999.90;;;26.80;68.10;;;;;;5037476;28;20052;-72
2023/04/09 03:08:20;;;;;;;1999.90;999.90;;;26.90;68.00;;;;;;5030512;28;20086;-72
2023/04/09 03:10:48;;;;;;;1999.90;999.90;;;26.60;68.10;;;;;;5037966;28;20032;-74
2023/04/09 03:13:15;;;;;;;1999.90;999.90;;;25.90;67.70;;;;;;5034945;28;20022;-72
2023/04/09 03:15:42;;;;;;;1999.90;999.90;;;25.70;69.00;;;;;;5037728;28;20029;-72
2023/04/09 03:18:09;;;;;;;1999.90;999.90;;;26.20;69.20;;;;;;5030362;28;20018;-73
2023/04/09 03:20:40;;;;;;;1999.90;999.90;;;26.60;67.70;;;;;;5032664;28;20170;-72
2023/04/09 03:23:07;;;;;;;1999.90;999.90;;;27.00;67.70;;;;;;5027951;28;20121;-72
2023/04/09 03:25:35;;;;;;;1999.90;999.90;;;27.40;68.00;;;;;;5037250;28;20033;-70
2023/04/09 03:28:02;;;;;;;1999.90;999.90;;;27.90;67.70;;;;;;5031088;28;20032;-70
2023/04/09 03:30:30;;;;;;;1999.90;999.90;;;27.70;67.90;;;;;;5029467;28;20032;-70
2023/04/09 03:32:58;;;;;;;1999.90;999.90;;;26.90;66.20;;;;;;5027382;28;20029;-72
2023/04/09 03:35:26;;;;;;;1999.90;999.90;;;26.10;68.10;;;;;;5028022;28;20025;-71
2023/04/09 03:37:53;;;;;;;1999.90;999.90;;;25.90;68.70;;;;;;5032621;28;20025;-71
2023/04/09 03:40:20;;;;;;;1999.90;999.90;;;26.10;68.20;;;;;;5038777;28;20074;-71
2023/04/09 03:42:47;;;;;;;1999.90;999.90;;;25.80;68.10;;;;;;5034354;28;20025;-71
2023/04/09 03:45:15;;;;;;;1999.90;999.90;;;25.40;69.50;;;;;;5039833;28;20052;-72
2023/04/09 03:47:42;;;;;;;1999.90;999.90;;;25.10;69.50;;;;;;5035719;28;20041;-71
2023/04/09 03:50:10;;;;;;;1999.90;999.90;;;25.60;70.80;;;;;;5031600;28;20120;-70
2023/04/09 03:52:37;;;;;;;1999.90;999.90;;;26.10;69.30;;;;;;5030176;28;20108;-72
2023/04/09 03:55:05;;;;;;;1999.90;999.90;;;26.10;68.00;;;;;;5032295;28;20625;-71
2023/04/09 03:57:32;;;;;;;1999.90;999.90;;;26.30;68.30;;;;;;5028804;28;20060;-67
2023/04/09 03:59:59;;;;;;;1999.90;999.90;;;26.60;68.10;;;;;;5028020;28;20041;-69
2023/04/09 04:02:30;;;;;;;1999.90;999.90;;;26.70;67.30;;;;;;5037702;28;20023;-70
2023/04/09 04:04:57;;;;;;;1999.90;999.90;;;26.90;66.90;;;;;;5029225;28;20042;-69
2023/04/09 04:07:26;;;;;;;1999.90;999.90;;;27.00;66.40;;;;;;5027431;28;20030;-70
2023/04/09 04:09:53;;;;;;;1999.90;999.90;;;26.80;65.90;;;;;;5032754;28;20021;-69
2023/04/09 04:12:20;;;;;;;1999.90;999.90;;;26.70;66.40;;;;;;5028698;28;20033;-69
2023/04/09 04:14:47;;;;;;;1999.90;999.90;;;26.80;66.70;;;;;;5028569;28;20102;-71
2023/04/09 04:17:15;;;;;;;1999.90;999.90;;;26.70;66.80;;;;;;5025852;28;20044;-68
2023/04/09 04:19:42;;;;;;;1999.90;999.90;;;26.70;68.00;;;;;;5037663;28;20039;-69
2023/04/09 04:22:09;;;;;;;1999.90;999.90;;;26.80;67.80;;;;;;5020881;28;20030;-69
2023/04/09 04:24:37;;;;;;;1999.90;999.90;;;26.60;67.20;;;;;;5029483;28;20128;-70
2023/04/09 04:27:05;;;;;;;1999.90;999.90;;;26.50;67.00;;;;;;5031909;28;20628;-70
2023/04/09 04:29:32;;;;;;;1999.90;999.90;;;26.40;67.10;;;;;;5028718;28;20048;-68
2023/04/09 04:32:00;;;;;;;1999.90;999.90;;;26.30;67.70;;;;;;5024875;28;20052;-70
2023/04/09 04:34:27;;;;;;;1999.90;999.90;;;26.10;67.70;;;;;;5025015;28;20105;-69
2023/04/09 04:36:54;;;;;;;1999.90;999.90;;;26.00;67.10;;;;;;5033035;28;20026;-69
2023/04/09 04:39:22;;;;;;;1999.90;999.90;;;25.90;67.90;;;;;;5034548;28;20033;-70
2023/04/09 04:41:49;;;;;;;1999.90;999.90;;;25.80;67.30;;;;;;5034407;28;20089;-69
2023/04/09 04:44:16;;;;;;;1999.90;999.90;;;25.70;67.80;;;;;;5025636;28;20034;-70
2023/04/09 04:46:43;;;;;;;1999.90;999.90;;;25.70;68.30;;;;;;5027901;28;20952;-71
2023/04/09 04:49:11;;;;;;;1999.90;999.90;;;25.60;67.90;;;;;;5030019;28;20069;-71
2023/04/09 04:51:38;;;;;;;1999.90;999.90;;;25.60;67.90;;;;;;5027421;28;20030;-72
2023/04/09 04:54:05;;;;;;;1999.90;999.90;;;25.50;68.10;;;;;;5026907;28;20040;-70
2023/04/09 04:56:33;;;;;;;1999.90;999.90;;;25.30;68.40;;;;;;5035599;28;20077;-73
2023/04/09 04:59:00;;;;;;;1999.90;999.90;;;25.20;68.90;;;;;;5034968;28;20491;-72
2023/04/09 05:01:28;;;;;;;1999.90;999.90;;;25.10;68.10;;;;;;5033922;28;20350;-73
2023/04/09 05:03:55;;;;;;;1999.90;999.90;;;24.70;68.30;;;;;;5035957;28;20321;-71
2023/04/09 05:06:23;;;;;;;1999.90;999.90;;;24.30;69.30;;;;;;5032787;28;20133;-71
2023/04/09 05:08:50;;;;;;;1999.90;999.90;;;24.20;69.40;;;;;;5032100;28;20032;-70
2023/04/09 05:11:17;;;;;;;1999.90;999.90;;;24.10;69.50;;;;;;5028095;28;20075;-70
2023/04/09 05:13:45;;;;;;;1999.90;999.90;;;24.10;69.00;;;;;;5033074;28;20114;-72
2023/04/09 05:16:21;;;;;;;1999.90;999.90;;;24.10;69.60;;;;;;5034005;28;20029;-71
2023/04/09 05:18:49;;;;;;;1999.90;999.90;;;24.20;69.50;;;;;;5036933;28;20030;-71
2023/04/09 05:21:16;;;;;;;1999.90;999.90;;;24.20;68.80;;;;;;5026254;28;20119;-70
2023/04/09 05:23:44;;;;;;;1999.90;999.90;;;24.20;68.30;;;;;;5037502;28;22316;-70
2023/04/09 05:26:11;;;;;;;1999.90;999.90;;;24.20;69.40;;;;;;5034708;28;20021;-71
2023/04/09 05:28:39;;;;;;;1999.90;999.90;;;24.10;68.10;;;;;;5036960;28;20096;-73
2023/04/09 05:31:11;;;;;;;1999.90;999.90;;;24.00;68.30;;;;;;5034855;28;20061;-71
2023/04/09 05:33:39;;;;;;;1999.90;999.90;;;23.70;68.00;;;;;;5028814;28;20129;-71
2023/04/09 05:36:08;;;;;;;1999.90;999.90;;;23.60;68.90;;;;;;5025130;28;20799;-70
2023/04/09 05:38:35;;;;;;;1999.90;999.90;;;23.50;69.10;;;;;;5030085;28;20055;-71
2023/04/09 05:41:03;;;;;;;1999.90;999.90;;;23.40;69.10;;;;;;5028985;28;20407;-71
2023/04/09 05:43:30;;;;;;;1999.90;999.90;;;23.30;69.60;;;;;;5035038;28;20042;-72
2023/04/09 05:45:57;;;;;;;1999.90;999.90;;;23.30;69.70;;;;;;5042250;28;20404;-71
2023/04/09 05:48:25;;;;;;;1999.90;999.90;;;23.30;69.60;;;;;;5029175;28;20096;-73
2023/04/09 05:50:52;;;;;;;1999.90;999.90;;;23.20;69.90;;;;;;5026375;28;20030;-75
2023/04/09 05:53:20;;;;;;;1999.90;999.90;;;23.20;70.40;;;;;;5032822;28;20029;-73
2023/04/09 05:55:50;;;;;;;1999.90;999.90;;;23.20;70.00;;;;;;5029402;28;20108;-72
2023/04/09 05:58:18;;;;;;;1999.90;999.90;;;23.30;70.00;;;;;;5029971;28;20083;-70
2023/04/09 06:00:45;;;;;;;1999.90;999.90;;;23.20;69.70;;;;;;5031824;28;20040;-72
2023/04/09 06:03:13;;;;;;;1999.90;999.90;;;23.10;70.10;;;;;;5031672;28;20119;-71
2023/04/09 06:05:40;;;;;;;1999.90;999.90;;;23.10;70.20;;;;;;5021741;28;20036;-72
2023/04/09 06:08:07;;;;;;;1999.90;999.90;;;23.00;70.50;;;;;;5028553;28;20390;-72
2023/04/09 06:10:35;;;;;;;1999.90;999.90;;;22.80;70.20;;;;;;5034014;28;20451;-71
2023/04/09 06:13:02;;;;;;;1999.90;999.90;;;22.70;70.00;;;;;;5028464;28;20155;-71
2023/04/09 06:15:29;;;;;;;1999.90;999.90;;;22.50;69.80;;;;;;5033513;28;20506;-73
2023/04/09 06:17:57;;;;;;;1999.90;999.90;;;22.40;70.70;;;;;;5029319;28;20025;-70
2023/04/09 06:20:24;;;;;;;1999.90;999.90;;;22.30;70.70;;;;;;5026929;28;20036;-70
2023/04/09 06:22:51;;;;;;;1999.90;999.90;;;22.00;71.20;;;;;;5035034;28;20032;-70
2023/04/09 06:25:19;;;;;;;1999.90;999.90;;;21.90;72.20;;;;;;5029935;28;20040;-71
2023/04/09 06:27:46;;;;;;;1999.90;999.90;;;21.90;71.50;;;;;;5029986;28;20482;-72
2023/04/09 06:30:13;;;;;;;1999.90;999.90;;;21.80;72.20;;;;;;5031683;28;20017;-71
2023/04/09 06:32:41;;;;;;;1999.90;999.90;;;21.70;72.10;;;;;;5026475;28;20032;-70
2023/04/09 06:35:08;;;;;;;1999.90;999.90;;;21.50;71.90;;;;;;5029427;28;20022;-73
2023/04/09 06:37:36;;;;;;;1999.90;999.90;;;21.30;72.10;;;;;;5031835;28;20079;-70
2023/04/09 06:40:03;;;;;;;1999.90;999.90;;;21.20;72.70;;;;;;5022304;28;20068;-71
2023/04/09 06:42:31;;;;;;;1999.90;999.90;;;21.10;73.30;;;;;;5027136;28;20033;-71
2023/04/09 06:44:58;;;;;;;1999.90;999.90;;;21.00;73.10;;;;;;5025044;28;20045;-72
2023/04/09 06:47:25;;;;;;;1999.90;999.90;;;21.00;73.30;;;;;;5033256;28;20120;-70
2023/04/09 06:49:53;;;;;;;1999.90;999.90;;;21.00;73.90;;;;;;5032889;28;20041;-70
2023/04/09 06:52:20;;;;;;;1999.90;999.90;;;20.90;73.00;;;;;;5028292;28;20470;-71
2023/04/09 06:54:47;;;;;;;1999.90;999.90;;;20.80;73.50;;;;;;5025808;28;20506;-71
2023/04/09 06:57:15;;;;;;;1999.90;999.90;;;20.80;73.40;;;;;;5028925;28;20036;-72
2023/04/09 06:59:42;;;;;;;1999.90;999.90;;;20.70;73.40;;;;;;5032448;28;20044;-70
2023/04/09 07:02:10;;;;;;;1999.90;999.90;;;20.60;73.70;;;;;;5028355;28;20037;-70
2023/04/09 07:04:37;;;;;;;1999.90;999.90;;;20.50;74.20;;;;;;5027731;28;20041;-70
2023/04/09 07:07:04;;;;;;;1999.90;999.90;;;20.40;74.40;;;;;;5030813;28;20162;-70
2023/04/09 07:09:32;;;;;;;1999.90;999.90;;;20.30;74.80;;;;;;5025260;28;20551;-69
2023/04/09 07:12:00;;;;;;;1999.90;999.90;;;20.30;75.10;;;;;;5031388;28;20029;-72
2023/04/09 07:14:27;;;;;;;1999.90;999.90;;;20.10;75.40;;;;;;5029127;28;20095;-69
2023/04/09 07:16:54;;;;;;;1999.90;999.90;;;20.00;76.10;;;;;;5026422;28;20530;-69
2023/04/09 07:19:22;;;;;;;1999.90;999.90;;;19.90;76.50;;;;;;5031598;28;20034;-71
2023/04/09 07:21:49;;;;;;;1999.90;999.90;;;19.80;76.20;;;;;;5023543;28;20103;-69
2023/04/09 07:24:17;;;;;;;1999.90;999.90;;;19.70;76.70;;;;;;5031166;28;20043;-71
2023/04/09 07:26:44;;;;;;;1999.90;999.90;;;19.50;76.70;;;;;;5030936;28;20025;-72
2023/04/09 07:29:11;;;;;;;1999.90;999.90;;;19.40;76.90;;;;;;5034721;28;20056;-71
2023/04/09 07:31:39;;;;;;;1999.90;999.90;;;19.30;76.80;;;;;;5034064;28;20037;-72
2023/04/09 07:34:06;;;;;;;1999.90;999.90;;;19.20;77.10;;;;;;5030769;28;20476;-72
2023/04/09 07:36:34;;;;;;;1999.90;999.90;;;19.00;77.40;;;;;;5029134;28;20116;-71
2023/04/09 07:39:01;;;;;;;1999.90;999.90;;;19.00;78.10;;;;;;5025095;28;20120;-70
2023/04/09 07:41:28;;;;;;;1999.90;999.90;;;18.80;78.20;;;;;;5026948;28;20046;-71
2023/04/09 07:43:56;;;;;;;1999.90;999.90;;;18.70;78.50;;;;;;5030531;28;20369;-71
2023/04/09 07:46:23;;;;;;;1999.90;999.90;;;18.70;78.70;;;;;;5029070;28;20668;-70
2023/04/09 07:48:50;;;;;;;1999.90;999.90;;;18.60;78.50;;;;;;5032153;28;20040;-71
2023/04/09 07:51:18;;;;;;;1999.90;999.90;;;18.60;78.60;;;;;;5027281;28;20112;-69
2023/04/09 07:53:45;;;;;;;1999.90;999.90;;;18.50;78.80;;;;;;5033330;28;20223;-71
2023/04/09 07:56:12;;;;;;;1999.90;999.90;;;18.40;78.80;;;;;;5033145;28;20053;-71
2023/04/09 07:58:40;;;;;;;1999.90;999.90;;;18.30;79.10;;;;;;5037574;28;20036;-69
2023/04/09 08:01:07;;;;;;;1999.90;999.90;;;18.20;79.40;;;;;;5036434;28;20106;-71
2023/04/09 08:03:35;;;;;;;1999.90;999.90;;;18.10;79.80;;;;;;5031634;28;20037;-67
2023/04/09 08:06:02;;;;;;;1999.90;999.90;;;18.00;80.00;;;;;;5032816;28;20036;-68
2023/04/09 08:08:30;;;;;;;1999.90;999.90;;;18.00;80.00;;;;;;5032172;28;20075;-68
2023/04/09 08:10:57;;;;;;;1999.90;999.90;;;17.90;80.00;;;;;;5033148;28;20025;-68
2023/04/09 08:13:24;;;;;;;1999.90;999.90;;;17.90;80.40;;;;;;5020644;28;20223;-68
2023/04/09 08:15:52;;;;;;;1999.90;999.90;;;17.80;81.00;;;;;;5021918;28;20045;-68
2023/04/09 08:18:19;;;;;;;1999.90;999.90;;;17.80;81.50;;;;;;5032715;28;20369;-67
2023/04/09 08:20:47;;;;;;;1999.90;999.90;;;17.70;81.80;;;;;;5032290;28;20044;-67
2023/04/09 08:23:14;;;;;;;1999.90;999.90;;;17.70;82.00;;;;;;5033687;28;20028;-68
2023/04/09 08:25:41;;;;;;;1999.90;999.90;;;17.70;81.80;;;;;;5028800;28;20037;-67
2023/04/09 08:28:09;;;;;;;1999.90;999.90;;;17.70;81.80;;;;;;5029458;28;20025;-70
2023/04/09 08:30:36;;;;;;;1999.90;999.90;;;17.70;81.50;;;;;;5034886;28;20443;-69
2023/04/09 08:33:04;;;;;;;1999.90;999.90;;;17.60;81.80;;;;;;5036813;28;20033;-70
2023/04/09 08:35:31;;;;;;;1999.90;999.90;;;17.50;83.30;;;;;;5034775;28;20029;-70
2023/04/09 08:37:59;;;;;;;1999.90;999.90;;;17.40;83.20;;;;;;5032281;28;20033;-71
2023/04/09 08:40:26;;;;;;;1999.90;999.90;;;17.40;83.60;;;;;;5031366;28;20025;-71
2023/04/09 08:42:58;;;;;;;1999.90;999.90;;;17.30;83.90;;;;;;5029859;28;20029;-71
2023/04/09 08:45:25;;;;;;;1999.90;999.90;;;17.30;84.20;;;;;;5031022;28;20041;-71
2023/04/09 08:47:53;;;;;;;1999.90;999.90;;;17.20;84.50;;;;;;5031015;28;20111;-72
2023/04/09 08:50:21;;;;;;;1999.90;999.90;;;17.20;85.00;;;;;;5037564;28;20033;-70
2023/04/09 08:52:49;;;;;;;1999.90;999.90;;;17.10;85.80;;;;;;5027846;28;20089;-70
2023/04/09 08:55:17;;;;;;;1999.90;999.90;;;17.10;86.40;;;;;;5030413;28;20075;-70
2023/04/09 08:57:44;;;;;;;1999.90;999.90;;;17.00;86.10;;;;;;5034555;28;20060;-70
2023/04/09 09:00:12;;;;;;;1999.90;999.90;;;16.90;86.30;;;;;;5034891;28;20471;-71
2023/04/09 09:03:07;;;;;;;1999.90;999.90;;;16.90;86.50;;;;;;5034659;28;20124;-69
2023/04/09 09:05:45;;;;;;;1999.90;999.90;;;16.80;87.00;;;;;;5029873;28;20022;-69
2023/04/09 09:08:24;;;;;;;1999.90;999.90;;;16.80;86.30;;;;;;5033363;28;20025;-69
2023/04/09 09:10:52;;;;;;;1999.90;999.90;;;16.70;86.40;;;;;;5034043;28;20484;-69
2023/04/09 09:13:24;;;;;;;1999.90;999.90;;;16.60;86.70;;;;;;5030496;28;20130;-70
2023/04/09 09:15:56;;;;;;;1999.90;999.90;;;16.50;86.90;;;;;;5037346;28;20096;-70
2023/04/09 09:18:43;;;;;;;1999.90;999.90;;;16.40;87.60;;;;;;5033068;28;20044;-69
2023/04/09 09:21:18;;;;;;;1999.90;999.90;;;16.30;87.40;;;;;;5035364;28;20021;-70
2023/04/09 09:23:47;;;;;;;1999.90;999.90;;;16.20;87.30;;;;;;5039200;28;20041;-69
2023/04/09 09:26:30;;;;;;;1999.90;999.90;;;16.10;87.50;;;;;;5037778;28;20049;-70
2023/04/09 09:28:58;;;;;;;1999.90;999.90;;;16.10;87.30;;;;;;5036372;28;20112;-70
2023/04/09 09:31:25;;;;;;;1999.90;999.90;;;16.10;87.30;;;;;;5039519;28;20130;-69
2023/04/09 09:33:53;;;;;;;1999.90;999.90;;;16.00;87.40;;;;;;5038304;28;20021;-69
2023/04/09 09:36:46;;;;;;;1999.90;999.90;;;16.00;87.50;;;;;;5033920;28;20055;-70
2023/04/09 09:39:16;;;;;;;1999.90;999.90;;;16.00;87.60;;;;;;5037295;28;20515;-70
2023/04/09 09:41:44;;;;;;;1999.90;999.90;;;15.90;87.70;;;;;;5034772;28;20112;-70
2023/04/09 09:44:29;;;;;;;1999.90;999.90;;;15.90;87.80;;;;;;5041945;28;20041;-69
2023/04/09 09:46:58;;;;;;;1999.90;999.90;;;15.90;87.70;;;;;;5030626;28;20137;-70
2023/04/09 09:49:25;;;;;;;1999.90;999.90;;;15.90;88.40;;;;;;5040452;28;20082;-70
2023/04/09 09:51:56;;;;;;;1999.90;999.90;;;15.80;89.60;;;;;;5038166;28;20017;-69
2023/04/09 09:54:29;;;;;;;1999.90;999.90;;;15.70;89.50;;;;;;5042062;28;20029;-70
2023/04/09 09:56:59;;;;;;;1999.90;999.90;;;15.70;89.60;;;;;;5041729;28;20028;-70
2023/04/09 09:59:34;;;;;;;1999.90;999.90;;;15.60;89.20;;;;;;5028107;28;20032;-70
2023/04/09 10:02:06;;;;;;;1999.90;999.90;;;15.50;90.00;;;;;;5033970;28;20060;-70
2023/04/09 10:04:36;;;;;;;1999.90;999.90;;;15.50;90.80;;;;;;5031635;28;20065;-70
2023/04/09 10:07:07;;;;;;;1999.90;999.90;;;15.40;90.50;;;;;;5037211;28;20395;-70
2023/04/09 10:09:37;;;;;;;1999.90;999.90;;;15.30;90.80;;;;;;5033318;28;20079;-71
2023/04/09 10:12:10;;;;;;;1999.90;999.90;;;15.20;90.70;;;;;;5035474;28;20392;-69
2023/04/09 10:14:39;;;;;;;1999.90;999.90;;;15.20;91.20;;;;;;5041402;28;20041;-70
2023/04/09 10:17:06;;;;;;;1999.90;999.90;;;15.10;91.10;;;;;;5036638;28;20063;-70
2023/04/09 10:19:40;;;;;;;1999.90;999.90;;;15.10;91.50;;;;;;5033892;28;20045;-70
2023/04/09 10:22:15;;;;;;;1999.90;999.90;;;15.00;91.60;;;;;;5031664;28;20055;-70
2023/04/09 10:24:43;;;;;;;1999.90;999.90;;;15.00;91.90;;;;;;5034350;28;20052;-69
2023/04/09 10:27:12;;;;;;;1999.90;999.90;;;15.00;91.50;;;;;;5035023;28;20025;-69
2023/04/09 10:29:50;;;;;;;1999.90;999.90;;;14.90;92.20;;;;;;5030793;28;20033;-70
2023/04/09 10:32:25;;;;;;;1999.90;999.90;;;14.90;92.20;;;;;;5033539;28;20075;-69
2023/04/09 10:34:56;;;;;;;1999.90;999.90;;;14.80;92.40;;;;;;5024798;28;20084;-68
2023/04/09 10:37:25;;;;;;;1999.90;999.90;;;14.80;92.90;;;;;;5030915;28;20025;-69
2023/04/09 10:39:53;;;;;;;1999.90;999.90;;;14.70;92.90;;;;;;5020627;28;20033;-68
2023/04/09 10:42:26;;;;;;;1999.90;999.90;;;14.60;93.20;;;;;;5035751;28;20079;-70
2023/04/09 10:45:07;;;;;;;1999.90;999.90;;;14.50;93.50;;;;;;5027583;28;20251;-70
2023/04/09 10:47:37;;;;;;;1999.90;999.90;;;14.40;93.60;;;;;;5027469;28;20064;-69
2023/04/09 10:50:19;;;;;;;1999.90;999.90;;;14.30;93.50;;;;;;5034911;28;20035;-69
2023/04/09 10:52:51;;;;;;;1999.90;999.90;;;14.30;93.50;;;;;;5030932;28;20025;-69
2023/04/09 10:55:37;;;;;;;1999.90;999.90;;;14.20;94.40;;;;;;5034937;28;20478;-69
2023/04/09 10:58:06;;;;;;;1999.90;999.90;;;14.20;94.70;;;;;;5033327;28;20033;-68
2023/04/09 11:00:47;;;;;;;1999.90;999.90;;;14.10;94.90;;;;;;5036141;28;20037;-68
2023/04/09 11:03:27;;;;;;;1999.90;999.90;;;14.00;95.30;;;;;;5029566;28;20025;-68
2023/04/09 11:06:01;;;;;;;1999.90;999.90;;;13.90;95.40;;;;;;5035626;28;20072;-68
2023/04/09 11:08:33;;;;;;;1999.90;999.90;;;13.80;96.10;;;;;;5033037;28;20036;-68
2023/04/09 11:11:01;;;;;;;1999.90;999.90;;;13.70;96.50;;;;;;5036386;28;20037;-69
2023/04/09 11:13:30;;;;;;;1999.90;999.90;;;13.60;96.20;;;;;;5033886;28;20037;-69
2023/04/09 11:15:59;;;;;;;1999.90;999.90;;;13.60;96.40;;;;;;5040304;28;20029;-69
2023/04/09 11:18:29;;;;;;;1999.90;999.90;;;13.60;96.50;;;;;;5032952;28;20029;-70
2023/04/09 11:21:01;;;;;;;1999.90;999.90;;;13.60;96.60;;;;;;5037451;28;20030;-68
2023/04/09 11:23:30;;;;;;;1999.90;999.90;;;13.50;96.60;;;;;;5035728;28;20064;-68
2023/04/09 11:25:57;;;;;;;1999.90;999.90;;;13.50;96.80;;;;;;5036850;28;20391;-69
2023/04/09 11:28:25;;;;;;;1999.90;999.90;;;13.50;96.80;;;;;;5037121;28;20380;-69
2023/04/09 11:30:53;;;;;;;1999.90;999.90;;;13.40;97.00;;;;;;5035688;28;20448;-69
2023/04/09 11:33:21;;;;;;;1999.90;999.90;;;13.40;97.60;;;;;;5033695;28;20052;-69
2023/04/09 11:35:49;;;;;;;1999.90;999.90;;;13.40;97.90;;;;;;5039512;28;20029;-68
2023/04/09 11:38:17;;;;;;;1999.90;999.90;;;13.30;98.20;;;;;;5030791;28;20024;-70
2023/04/09 11:40:48;;;;;;;1999.90;999.90;;;13.30;98.00;;;;;;5032944;28;20031;-69
2023/04/09 11:43:16;;;;;;;1999.90;999.90;;;13.30;98.00;;;;;;5033644;28;20029;-70
2023/04/09 11:45:46;;;;;;;1999.90;999.90;;;13.30;98.10;;;;;;5030809;28;20065;-69
2023/04/09 11:48:14;;;;;;;1999.90;999.90;;;13.30;97.80;;;;;;5037335;28;20053;-70
2023/04/09 11:50:42;;;;;;;1999.90;999.90;;;13.40;97.40;;;;;;5037483;28;20090;-72
2023/04/09 11:53:23;;;;;;;1999.90;999.90;;;13.40;97.00;;;;;;5032439;28;20103;-69
2023/04/09 11:55:52;;;;;;;1999.90;999.90;;;13.50;96.40;;;;;;5032427;28;20040;-68
2023/04/09 11:58:23;;;;;;;1999.90;999.90;;;13.60;95.80;;;;;;5030448;28;20061;-71
2023/04/09 12:00:57;;;;;;;1999.90;999.90;;;13.70;95.60;;;;;;5026990;28;20116;-67
2023/04/09 12:03:31;;;;;;;1999.90;999.90;;;13.70;95.40;;;;;;5029273;28;20390;-68
2023/04/09 12:06:02;;;;;;;1999.90;999.90;;;13.80;95.60;;;;;;5029208;28;20368;-68
2023/04/09 12:08:30;;;;;;;1999.90;999.90;;;13.80;95.20;;;;;;5029721;28;20506;-68